Time;durP1;ratioP1;P1;durP2;ratioP2;P2;SDS_P1;SDS_P2;PMS_P1;PMS_P2;Temp;Humidity;BMP_temperature;BMP_pressure;BME280_temperature;BME280_humidity;BME280_pressure;Samples;Min_cycle;Max_cycle;Signal;HPM_P1;HPM_P2
2022/12/02 00:01:27;;;;;;;19.35;11.55;;;18.10;1.00;;;;;;4842903;29;20121;-39
2022/12/02 00:03:55;;;;;;;16.38;11.48;;;18.10;1.00;;;;;;4842189;29;20506;-39
2022/12/02 00:06:28;;;;;;;19.58;10.68;;;18.00;1.00;;;;;;4842484;29;20061;-39
2022/12/02 00:09:05;;;;;;;21.48;12.25;;;18.00;1.00;;;;;;4842443;29;20136;-39
2022/12/02 00:11:31;;;;;;;17.38;10.57;;;18.00;1.00;;;;;;4842210;29;20089;-39
2022/12/02 00:14:01;;;;;;;17.83;10.93;;;18.00;1.00;;;;;;4842003;29;20128;-39
2022/12/02 00:16:28;;;;;;;18.20;10.82;;;18.00;1.00;;;;;;4841572;29;20101;-40
2022/12/02 00:18:55;;;;;;;18.77;11.48;;;17.90;1.00;;;;;;4842239;29;20491;-40
2022/12/02 00:21:22;;;;;;;18.98;11.63;;;17.90;1.00;;;;;;4842128;29;20042;-40
2022/12/02 00:23:49;;;;;;;18.45;11.30;;;17.90;1.00;;;;;;4841768;29;20050;-40
2022/12/02 00:26:16;;;;;;;19.48;11.77;;;17.90;1.00;;;;;;4842117;29;20178;-40
2022/12/02 00:28:43;;;;;;;19.17;11.27;;;17.80;1.00;;;;;;4841845;29;20054;-39
2022/12/02 00:31:09;;;;;;;18.92;11.10;;;17.80;1.00;;;;;;4825802;29;20058;-40
2022/12/02 00:33:36;;;;;;;18.15;11.38;;;17.80;1.00;;;;;;4841723;29;20080;-40
2022/12/02 00:36:03;;;;;;;20.38;12.07;;;17.80;1.00;;;;;;4841757;29;20073;-40
2022/12/02 00:38:30;;;;;;;20.00;10.95;;;17.70;1.00;;;;;;4825236;29;20056;-40
2022/12/02 00:40:58;;;;;;;22.23;12.43;;;17.70;1.00;;;;;;4841851;29;20082;-41
2022/12/02 00:48:56;;;;;;;22.17;12.75;;;17.70;1.00;;;;;;4841711;29;20481;-40
2022/12/02 00:51:24;;;;;;;19.60;10.93;;;17.60;1.00;;;;;;4825340;29;20054;-40
2022/12/02 00:53:52;;;;;;;16.42;10.00;;;17.60;1.00;;;;;;4841341;29;20042;-40
2022/12/02 00:56:18;;;;;;;21.63;10.95;;;17.60;1.00;;;;;;4825145;29;20050;-40
2022/12/02 00:58:46;;;;;;;20.27;12.13;;;17.60;1.00;;;;;;4825378;29;20053;-40
2022/12/02 01:01:13;;;;;;;17.15;10.05;;;17.60;1.00;;;;;;4825079;29;20050;-40
2022/12/02 01:03:40;;;;;;;20.38;11.82;;;17.60;1.00;;;;;;4824927;29;20054;-40
2022/12/02 01:06:12;;;;;;;19.23;11.23;;;17.60;1.00;;;;;;4841526;29;20052;-40
2022/12/02 01:08:39;;;;;;;14.93;9.82;;;17.60;1.00;;;;;;4841416;29;20620;-40
2022/12/02 01:11:06;;;;;;;20.38;11.52;;;17.50;1.00;;;;;;4825250;29;20127;-40
2022/12/02 01:13:34;;;;;;;20.17;11.30;;;17.50;1.00;;;;;;4840909;29;20049;-40
2022/12/02 01:16:00;;;;;;;17.42;9.98;;;17.50;1.00;;;;;;4841240;29;20093;-40
2022/12/02 01:18:27;;;;;;;18.48;11.18;;;17.50;1.00;;;;;;4825167;29;20431;-40
2022/12/02 01:20:54;;;;;;;18.23;11.10;;;17.50;1.00;;;;;;4825099;29;20065;-40
2022/12/02 01:23:21;;;;;;;18.60;10.60;;;17.50;1.00;;;;;;4840904;29;20046;-40
2022/12/02 01:25:48;;;;;;;18.92;10.93;;;17.50;1.00;;;;;;4841102;29;20102;-40
2022/12/02 01:28:15;;;;;;;18.70;10.93;;;17.50;1.00;;;;;;4840987;29;20060;-40
2022/12/02 01:30:42;;;;;;;16.30;9.77;;;17.50;1.00;;;;;;4841128;29;20046;-40
2022/12/02 01:33:09;;;;;;;16.55;9.77;;;17.40;1.00;;;;;;4824580;29;20050;-40
2022/12/02 01:35:37;;;;;;;18.67;11.20;;;17.40;1.00;;;;;;4824867;29;20057;-40
2022/12/02 01:38:04;;;;;;;17.98;9.98;;;17.50;1.00;;;;;;4840941;29;20046;-41
2022/12/02 01:40:31;;;;;;;17.77;10.65;;;17.40;1.00;;;;;;4840959;29;20065;-40
2022/12/02 01:42:58;;;;;;;19.02;10.55;;;17.40;1.00;;;;;;4840782;29;20041;-40
2022/12/02 01:45:25;;;;;;;19.58;11.10;;;17.40;1.00;;;;;;4824731;29;20054;-40
2022/12/02 01:47:52;;;;;;;16.38;9.98;;;17.40;1.00;;;;;;4841248;29;20129;-40
2022/12/02 01:50:20;;;;;;;15.25;9.90;;;17.30;1.00;;;;;;4840955;29;20414;-41
2022/12/02 01:52:48;;;;;;;18.48;10.13;;;17.30;1.00;;;;;;4824339;29;20506;-40
2022/12/02 01:55:24;;;;;;;18.27;10.95;;;17.30;1.00;;;;;;4824592;29;20061;-40
2022/12/02 01:57:51;;;;;;;19.40;10.27;;;17.30;1.00;;;;;;4824749;29;20046;-40
2022/12/02 02:00:19;;;;;;;18.42;10.30;;;17.30;1.00;;;;;;4824491;29;20050;-40
2022/12/02 02:02:46;;;;;;;17.13;10.07;;;17.20;1.00;;;;;;4824320;29;20049;-40
2022/12/02 02:05:16;;;;;;;17.55;9.98;;;17.20;1.00;;;;;;4840925;29;20090;-40
2022/12/02 02:07:47;;;;;;;16.42;9.70;;;17.20;1.00;;;;;;4824425;29;20057;-41
2022/12/02 02:10:14;;;;;;;22.17;11.63;;;17.20;1.00;;;;;;4824637;29;20062;-40
2022/12/02 02:12:43;;;;;;;19.50;10.75;;;17.10;1.00;;;;;;4840537;29;20045;-40
2022/12/02 02:15:11;;;;;;;17.02;10.40;;;17.10;1.00;;;;;;4824421;29;20082;-40
2022/12/02 02:17:39;;;;;;;18.20;9.80;;;17.10;1.00;;;;;;4840829;29;20120;-41
2022/12/02 02:20:10;;;;;;;17.27;10.60;;;17.10;1.00;;;;;;4824453;29;20050;-40
2022/12/02 02:22:42;;;;;;;16.02;10.57;;;17.10;1.00;;;;;;4823959;29;20050;-40
2022/12/02 02:25:12;;;;;;;17.75;10.35;;;17.10;1.00;;;;;;4824320;29;20050;-40
2022/12/02 02:27:53;;;;;;;19.67;12.13;;;17.00;1.00;;;;;;4824368;29;20082;-40
2022/12/02 02:30:20;;;;;;;17.77;10.40;;;17.10;1.00;;;;;;4824241;29;20058;-40
2022/12/02 02:32:50;;;;;;;18.02;10.95;;;17.00;1.00;;;;;;4823841;29;20110;-40
2022/12/02 02:35:18;;;;;;;16.55;9.88;;;17.00;1.00;;;;;;4840548;29;20057;-41
2022/12/02 02:37:47;;;;;;;16.20;9.65;;;17.00;1.00;;;;;;4824203;29;20054;-40
2022/12/02 02:40:16;;;;;;;20.77;10.25;;;17.00;1.00;;;;;;4827262;29;20050;-41
2022/12/02 02:42:50;;;;;;;17.25;10.65;;;17.00;1.00;;;;;;4827077;29;20391;-40
2022/12/02 02:45:20;;;;;;;19.33;11.25;;;16.90;1.00;;;;;;4844172;29;20073;-39
2022/12/02 02:47:48;;;;;;;16.90;10.25;;;16.90;1.00;;;;;;4827458;29;20410;-40
2022/12/02 02:50:15;;;;;;;18.02;9.85;;;16.90;1.00;;;;;;4843562;29;20046;-40
2022/12/02 02:52:42;;;;;;;14.50;8.70;;;16.90;1.00;;;;;;4843402;29;20056;-40
2022/12/02 02:55:17;;;;;;;18.50;10.10;;;16.90;1.00;;;;;;4843495;29;20038;-40
2022/12/02 02:57:44;;;;;;;17.40;10.60;;;16.90;1.00;;;;;;4843689;29;20410;-36
2022/12/02 03:00:12;;;;;;;17.88;9.02;;;16.90;1.00;;;;;;4836978;23;20146;-35
2022/12/02 03:02:40;;;;;;;17.63;9.82;;;16.90;1.00;;;;;;4808542;29;20050;-35
2022/12/02 03:05:07;;;;;;;15.48;10.10;;;16.80;1.00;;;;;;4808888;29;20572;-35
2022/12/02 03:07:35;;;;;;;20.23;10.95;;;16.80;1.00;;;;;;4808792;29;20050;-36
2022/12/02 03:10:04;;;;;;;19.00;10.10;;;16.80;1.00;;;;;;4805753;29;20515;-36
2022/12/02 03:12:32;;;;;;;16.58;9.77;;;16.80;1.00;;;;;;4806671;29;20047;-36
2022/12/02 03:14:59;;;;;;;21.48;11.18;;;16.80;1.00;;;;;;4814536;29;20061;-36
2022/12/02 03:17:26;;;;;;;18.83;9.98;;;16.80;1.00;;;;;;4824003;29;20038;-36
2022/12/02 03:19:53;;;;;;;19.35;11.10;;;16.70;1.00;;;;;;4821458;29;20095;-36
2022/12/02 03:22:20;;;;;;;18.33;10.90;;;16.70;1.00;;;;;;4824715;29;20488;-36
2022/12/02 03:24:47;;;;;;;19.48;10.82;;;16.70;1.00;;;;;;4824650;29;20469;-36
2022/12/02 03:27:14;;;;;;;17.08;10.15;;;16.70;1.00;;;;;;4818057;29;20046;-35
2022/12/02 03:29:42;;;;;;;20.90;10.68;;;16.70;1.00;;;;;;4824674;29;20117;-35
2022/12/02 03:32:09;;;;;;;17.73;10.45;;;16.70;1.00;;;;;;4824733;29;20050;-35
2022/12/02 03:34:40;;;;;;;20.17;10.63;;;16.70;1.00;;;;;;4824562;29;20057;-35
2022/12/02 03:37:08;;;;;;;16.75;9.35;;;16.60;1.00;;;;;;4824587;29;20050;-36
2022/12/02 03:39:35;;;;;;;19.08;10.23;;;16.60;1.00;;;;;;4824454;29;20058;-36
2022/12/02 03:42:03;;;;;;;17.70;11.02;;;16.60;1.00;;;;;;4823138;29;20049;-36
2022/12/02 03:44:29;;;;;;;22.25;10.20;;;16.60;1.00;;;;;;4824520;29;20098;-36
2022/12/02 03:46:56;;;;;;;16.27;9.93;;;16.60;1.00;;;;;;4824496;29;20126;-35
2022/12/02 03:49:24;;;;;;;21.55;10.02;;;16.60;1.00;;;;;;4823852;29;20042;-36
2022/12/02 03:51:51;;;;;;;18.65;9.40;;;16.60;1.00;;;;;;4823967;29;20099;-36
2022/12/02 03:54:18;;;;;;;17.45;9.88;;;16.50;1.00;;;;;;4824025;29;20042;-36
2022/12/02 03:56:44;;;;;;;19.02;9.98;;;16.50;1.00;;;;;;4824375;29;20057;-36
2022/12/02 03:59:22;;;;;;;18.23;10.52;;;16.50;1.00;;;;;;4824166;29;20050;-36
2022/12/02 04:01:49;;;;;;;18.33;10.75;;;16.50;1.00;;;;;;4824492;29;20042;-35
2022/12/02 04:04:16;;;;;;;15.70;9.15;;;16.50;1.00;;;;;;4823990;29;20042;-36
2022/12/02 04:06:42;;;;;;;20.52;10.27;;;16.50;1.00;;;;;;4824105;29;20088;-36
2022/12/02 04:09:09;;;;;;;19.15;10.25;;;16.50;1.00;;;;;;4824084;29;20050;-36
2022/12/02 04:11:36;;;;;;;17.77;10.88;;;16.40;1.00;;;;;;4824128;29;20047;-35
2022/12/02 04:14:03;;;;;;;16.08;9.70;;;16.40;1.00;;;;;;4823732;29;20103;-35
2022/12/02 04:16:29;;;;;;;22.27;11.30;;;16.40;1.00;;;;;;4823969;29;20043;-36
2022/12/02 04:18:56;;;;;;;17.85;10.00;;;16.40;1.00;;;;;;4824004;29;20079;-36
2022/12/02 04:21:26;;;;;;;15.50;8.57;;;16.40;1.00;;;;;;4823862;29;20049;-36
2022/12/02 04:23:53;;;;;;;17.77;10.05;;;16.40;1.00;;;;;;4823775;29;20528;-36
2022/12/02 04:26:20;;;;;;;18.33;10.85;;;16.40;1.00;;;;;;4823850;29;20058;-36
2022/12/02 04:28:48;;;;;;;15.43;9.52;;;16.30;1.00;;;;;;4823879;29;20077;-36
2022/12/02 04:31:14;;;;;;;18.27;9.25;;;16.30;1.00;;;;;;4823981;29;20137;-36
2022/12/02 04:33:41;;;;;;;17.50;9.60;;;16.30;1.00;;;;;;4823569;29;20046;-36
2022/12/02 04:36:08;;;;;;;17.70;9.85;;;16.30;1.00;;;;;;4823613;29;20523;-36
2022/12/02 04:38:35;;;;;;;18.48;10.15;;;16.30;1.00;;;;;;4823770;29;20042;-35
2022/12/02 04:41:01;;;;;;;19.42;10.32;;;16.30;1.00;;;;;;4809804;29;20108;-36
2022/12/02 04:43:28;;;;;;;19.02;9.07;;;16.30;1.00;;;;;;4805206;29;20089;-36
2022/12/02 04:45:55;;;;;;;15.38;9.15;;;16.30;1.00;;;;;;4805307;29;20047;-36
2022/12/02 04:48:21;;;;;;;17.55;9.80;;;16.20;1.00;;;;;;4805184;29;20111;-36
2022/12/02 04:50:48;;;;;;;18.95;9.70;;;16.20;1.00;;;;;;4805232;29;20047;-36
2022/12/02 04:53:15;;;;;;;17.35;9.95;;;16.20;1.00;;;;;;4804997;29;20054;-36
2022/12/02 04:55:45;;;;;;;19.45;9.93;;;16.20;1.00;;;;;;4805126;29;20046;-35
2022/12/02 04:58:12;;;;;;;18.88;9.60;;;16.20;1.00;;;;;;4805046;29;20407;-36
2022/12/02 05:00:39;;;;;;;16.30;10.18;;;16.20;1.00;;;;;;4805052;29;20061;-36
2022/12/02 05:03:06;;;;;;;17.02;9.30;;;16.20;1.00;;;;;;4804592;29;20123;-36
2022/12/02 05:05:33;;;;;;;18.00;9.90;;;16.20;1.00;;;;;;4805097;29;20408;-36
2022/12/02 05:07:59;;;;;;;17.40;10.20;;;16.20;1.00;;;;;;4805130;29;20456;-37
2022/12/02 05:10:26;;;;;;;18.67;9.15;;;16.20;1.00;;;;;;4805009;29;20123;-36
2022/12/02 05:12:53;;;;;;;16.17;8.80;;;16.10;1.00;;;;;;4804360;29;20042;-36
2022/12/02 05:15:20;;;;;;;21.48;9.32;;;16.10;1.00;;;;;;4812717;29;20062;-36
2022/12/02 05:17:47;;;;;;;26.08;8.65;;;16.10;1.00;;;;;;4814274;29;20050;-36
2022/12/02 05:20:13;;;;;;;17.60;9.98;;;16.10;1.00;;;;;;4823136;29;20566;-36
2022/12/02 05:22:40;;;;;;;19.00;10.25;;;16.10;1.00;;;;;;4822908;29;20046;-36
2022/12/02 05:25:07;;;;;;;16.20;8.75;;;16.10;1.00;;;;;;4823201;29;20091;-36
2022/12/02 05:27:34;;;;;;;16.50;8.30;;;16.10;1.00;;;;;;4823189;29;20084;-36
2022/12/02 05:30:03;;;;;;;15.32;8.63;;;16.10;1.00;;;;;;4823206;29;20050;-36
2022/12/02 05:32:30;;;;;;;28.15;10.73;;;16.00;1.00;;;;;;4822869;29;20053;-36
2022/12/02 05:34:57;;;;;;;21.42;9.63;;;16.00;1.00;;;;;;4823010;29;20088;-36
2022/12/02 05:37:24;;;;;;;14.95;8.88;;;16.00;1.00;;;;;;4822846;29;20050;-36
2022/12/02 05:39:51;;;;;;;22.88;8.82;;;16.00;1.00;;;;;;4822972;29;20038;-37
2022/12/02 05:42:18;;;;;;;21.90;9.18;;;16.00;1.00;;;;;;4822825;29;20050;-36
2022/12/02 05:44:45;;;;;;;22.60;10.50;;;16.00;1.00;;;;;;4822933;29;20483;-36
2022/12/02 05:47:17;;;;;;;14.38;7.57;;;16.00;1.00;;;;;;4822799;29;20077;-36
2022/12/02 05:49:45;;;;;;;20.00;10.18;;;16.00;1.00;;;;;;4821763;29;20133;-36
2022/12/02 05:52:25;;;;;;;15.95;9.00;;;16.00;1.00;;;;;;4806253;29;20078;-36
2022/12/02 05:54:54;;;;;;;18.63;8.32;;;15.90;1.00;;;;;;4822945;29;20054;-36
2022/12/02 05:57:24;;;;;;;19.38;8.50;;;16.00;1.00;;;;;;4822597;29;20043;-36
2022/12/02 06:00:09;;;;;;;15.95;8.07;;;15.90;1.00;;;;;;4808933;29;20043;-36
2022/12/02 06:02:51;;;;;;;23.30;9.15;;;15.90;1.00;;;;;;4813009;29;20052;-36
2022/12/02 06:05:32;;;;;;;17.85;9.73;;;15.90;1.00;;;;;;4784714;30;20051;-36
2022/12/02 06:08:19;;;;;;;16.98;9.43;;;15.90;1.00;;;;;;4786074;29;20055;-36
2022/12/02 06:10:51;;;;;;;17.83;8.60;;;15.90;1.00;;;;;;4786488;29;20052;-36
2022/12/02 06:13:26;;;;;;;15.90;9.88;;;15.80;1.00;;;;;;4786765;29;20086;-36
2022/12/02 06:15:53;;;;;;;18.48;8.85;;;15.80;1.00;;;;;;4789726;29;20584;-36
2022/12/02 06:18:25;;;;;;;17.85;8.10;;;15.80;1.00;;;;;;4803589;29;20096;-36
2022/12/02 06:20:56;;;;;;;16.20;8.68;;;15.80;1.00;;;;;;4789975;29;20047;-36
2022/12/02 06:23:26;;;;;;;16.65;7.70;;;15.80;1.00;;;;;;4803451;29;20397;-36
2022/12/02 06:25:53;;;;;;;16.25;8.75;;;15.80;1.00;;;;;;4789905;29;20122;-36
2022/12/02 06:28:25;;;;;;;19.50;8.50;;;15.80;1.00;;;;;;4788532;29;20415;-36
2022/12/02 06:30:58;;;;;;;17.88;8.80;;;15.80;1.00;;;;;;4789637;29;20074;-36
2022/12/02 06:33:31;;;;;;;15.40;7.82;;;15.80;1.00;;;;;;4789354;29;20039;-36
2022/12/02 06:36:02;;;;;;;16.25;8.70;;;15.80;1.00;;;;;;4789696;29;20131;-36
2022/12/02 06:38:33;;;;;;;18.30;8.82;;;15.70;1.00;;;;;;4789565;29;20189;-36
2022/12/02 06:41:21;;;;;;;21.95;8.50;;;15.70;1.00;;;;;;4789431;29;20050;-36
2022/12/02 06:46:36;;;;;;;16.52;9.18;;;15.70;1.00;;;;;;4789366;30;20130;-36
2022/12/02 06:49:18;;;;;;;15.27;8.43;;;15.70;1.00;;;;;;4789446;29;20089;-36
2022/12/02 06:51:45;;;;;;;18.42;9.00;;;15.60;1.00;;;;;;4788121;30;20051;-36
2022/12/02 06:54:20;;;;;;;13.85;7.93;;;15.60;1.00;;;;;;4789094;29;20126;-36
2022/12/02 06:56:48;;;;;;;16.75;8.88;;;15.60;1.00;;;;;;4789193;30;20058;-36
2022/12/02 06:59:20;;;;;;;20.63;9.30;;;15.60;1.00;;;;;;4789068;29;20067;-36
2022/12/02 07:01:47;;;;;;;17.80;8.35;;;15.60;1.00;;;;;;4789043;30;20044;-36
2022/12/02 07:04:44;;;;;;;18.08;9.82;;;15.60;1.00;;;;;;4802664;29;20519;-36
2022/12/02 07:07:25;;;;;;;15.48;8.48;;;15.60;1.00;;;;;;4789086;30;20411;-36
2022/12/02 07:09:56;;;;;;;18.23;8.77;;;15.60;1.00;;;;;;4789033;29;20142;-36
2022/12/02 07:12:35;;;;;;;14.75;8.80;;;15.50;1.00;;;;;;4787467;30;20047;-36
2022/12/02 07:15:18;;;;;;;16.38;8.80;;;15.50;1.00;;;;;;4788885;29;20047;-36
2022/12/02 07:17:45;;;;;;;18.73;8.90;;;15.50;1.00;;;;;;4788947;30;20198;-36
2022/12/02 07:20:33;;;;;;;19.58;8.93;;;15.50;1.00;;;;;;4788909;29;20134;-36
2022/12/02 07:23:20;;;;;;;18.95;9.13;;;15.50;1.00;;;;;;4788476;29;20074;-36
2022/12/02 07:25:50;;;;;;;15.95;7.63;;;15.50;1.00;;;;;;4788559;29;20054;-37
2022/12/02 07:28:30;;;;;;;17.00;8.57;;;15.50;1.00;;;;;;4788887;29;20479;-37
2022/12/02 07:31:02;;;;;;;18.77;9.38;;;15.50;1.00;;;;;;4788381;29;20436;-36
2022/12/02 07:33:29;;;;;;;17.33;9.98;;;15.40;1.00;;;;;;4784060;29;20412;-36
2022/12/02 07:35:56;;;;;;;16.20;7.18;;;15.40;1.00;;;;;;4784729;29;20055;-36
2022/12/02 07:38:23;;;;;;;17.40;8.52;;;15.40;1.00;;;;;;4782352;29;20496;-36
2022/12/02 07:41:10;;;;;;;22.05;8.73;;;15.40;1.00;;;;;;4782527;30;20504;-36
2022/12/02 07:43:37;;;;;;;17.83;9.52;;;15.40;1.00;;;;;;4787034;29;20085;-36
2022/12/02 07:46:04;;;;;;;15.23;7.95;;;15.40;1.00;;;;;;4788266;30;20433;-36
2022/12/02 07:48:31;;;;;;;17.50;8.68;;;15.40;1.00;;;;;;4788342;29;20043;-36
2022/12/02 07:50:58;;;;;;;16.63;8.82;;;15.40;1.00;;;;;;4788229;30;20423;-36
2022/12/02 07:53:25;;;;;;;18.63;8.98;;;15.40;1.00;;;;;;4801927;29;20678;-36
2022/12/02 07:55:51;;;;;;;17.52;8.27;;;15.40;1.00;;;;;;4787917;30;20130;-36
2022/12/02 07:58:18;;;;;;;16.35;8.73;;;15.30;1.00;;;;;;4787842;29;20089;-36
2022/12/02 08:00:45;;;;;;;16.33;8.93;;;15.30;1.00;;;;;;4787911;30;20050;-36
2022/12/02 08:03:11;;;;;;;21.55;10.57;;;15.30;1.00;;;;;;4787695;30;20539;-36
2022/12/02 08:05:38;;;;;;;16.98;9.13;;;15.30;1.00;;;;;;4787948;30;20055;-36
2022/12/02 08:08:05;;;;;;;17.10;7.38;;;15.30;1.00;;;;;;4787829;29;20050;-36
2022/12/02 08:10:32;;;;;;;14.65;8.52;;;15.30;1.00;;;;;;4786409;30;20141;-36
2022/12/02 08:12:58;;;;;;;19.55;8.48;;;15.30;1.00;;;;;;4787315;30;20057;-36
2022/12/02 08:15:25;;;;;;;17.80;8.45;;;15.30;1.00;;;;;;4787644;30;20047;-36
2022/12/02 08:17:52;;;;;;;15.45;8.05;;;15.30;1.00;;;;;;4787532;29;20059;-36
2022/12/02 08:20:19;;;;;;;19.75;9.93;;;15.30;1.00;;;;;;4787565;30;20067;-36
2022/12/02 08:22:46;;;;;;;18.73;9.15;;;15.30;1.00;;;;;;4787383;29;20127;-36
2022/12/02 08:25:12;;;;;;;20.45;9.52;;;15.30;1.00;;;;;;4787550;30;20594;-35
2022/12/02 08:27:39;;;;;;;17.17;8.73;;;15.20;1.00;;;;;;4788011;29;20085;-35
2022/12/02 08:30:14;;;;;;;19.13;8.93;;;15.20;1.00;;;;;;4787525;29;20063;-35
2022/12/02 08:32:40;;;;;;;19.38;9.57;;;15.20;1.00;;;;;;4787455;29;20179;-35
2022/12/02 08:35:08;;;;;;;19.95;9.75;;;15.20;1.00;;;;;;4801241;29;20053;-35
2022/12/02 08:37:34;;;;;;;19.83;9.60;;;15.20;1.00;;;;;;4786723;29;20043;-36
2022/12/02 08:40:01;;;;;;;17.13;8.02;;;15.20;1.00;;;;;;4787568;29;20069;-36
2022/12/02 08:42:28;;;;;;;16.48;7.90;;;15.20;1.00;;;;;;4787198;30;20104;-36
2022/12/02 08:44:55;;;;;;;18.23;8.13;;;15.20;1.00;;;;;;4787211;30;20053;-36
2022/12/02 08:47:21;;;;;;;20.48;9.23;;;15.20;1.00;;;;;;4787293;30;20516;-36
2022/12/02 08:49:49;;;;;;;17.60;8.77;;;15.20;1.00;;;;;;4786068;29;20146;-36
2022/12/02 08:52:15;;;;;;;20.02;9.77;;;15.20;1.00;;;;;;4786638;30;20050;-36
2022/12/02 08:54:44;;;;;;;16.13;8.80;;;15.20;1.00;;;;;;4787016;30;20557;-36
2022/12/02 08:57:11;;;;;;;16.38;8.80;;;15.20;1.00;;;;;;4787080;30;20516;-36
2022/12/02 08:59:38;;;;;;;15.77;8.43;;;15.10;1.00;;;;;;4815193;24;20050;-40
2022/12/02 09:02:05;;;;;;;16.20;8.27;;;15.10;1.00;;;;;;4823292;29;20453;-40
2022/12/02 09:04:32;;;;;;;16.98;8.38;;;15.10;1.00;;;;;;4836730;29;20441;-40
2022/12/02 09:06:58;;;;;;;15.80;7.70;;;15.10;1.00;;;;;;4823239;29;20050;-40
2022/12/02 09:09:26;;;;;;;16.90;8.48;;;15.10;1.00;;;;;;4823618;29;20133;-40
2022/12/02 09:11:53;;;;;;;17.52;8.23;;;15.10;1.00;;;;;;4823368;29;20107;-40
2022/12/02 09:14:20;;;;;;;19.50;8.63;;;15.10;1.00;;;;;;4823245;29;20097;-40
2022/12/02 09:16:47;;;;;;;20.30;8.35;;;15.10;1.00;;;;;;4823203;29;20050;-40
2022/12/02 09:19:13;;;;;;;17.95;7.70;;;15.10;1.00;;;;;;4823213;29;20078;-40
2022/12/02 09:21:40;;;;;;;18.60;7.88;;;15.10;1.00;;;;;;4821951;29;20487;-40
2022/12/02 09:24:07;;;;;;;17.85;8.40;;;15.10;1.00;;;;;;4822969;29;20043;-40
2022/12/02 09:26:34;;;;;;;22.58;8.55;;;15.10;1.00;;;;;;4823069;29;20046;-40
2022/12/02 09:29:00;;;;;;;20.17;9.35;;;15.00;1.00;;;;;;4823202;29;20053;-40
2022/12/02 09:31:27;;;;;;;16.90;9.05;;;15.00;1.00;;;;;;4822934;29;20057;-40
2022/12/02 09:33:54;;;;;;;16.10;8.82;;;15.00;1.00;;;;;;4822859;29;20046;-40
2022/12/02 09:36:21;;;;;;;15.68;8.07;;;15.00;1.00;;;;;;4822993;29;20061;-40
2022/12/02 09:38:48;;;;;;;15.70;8.40;;;15.00;1.00;;;;;;4823018;29;20043;-40
2022/12/02 09:41:15;;;;;;;15.32;7.60;;;15.00;1.00;;;;;;4822861;29;20050;-41
2022/12/02 09:43:42;;;;;;;17.05;9.13;;;15.00;1.00;;;;;;4821526;29;20068;-40
2022/12/02 09:46:09;;;;;;;19.52;9.65;;;15.00;1.00;;;;;;4822869;29;20062;-40
2022/12/02 09:48:36;;;;;;;13.77;6.88;;;15.00;1.00;;;;;;4825377;29;20133;-40
2022/12/02 09:51:03;;;;;;;14.18;6.95;;;15.00;1.00;;;;;;4826349;29;20084;-40
2022/12/02 09:53:35;;;;;;;15.43;7.22;;;15.00;1.00;;;;;;4826097;29;20051;-40
2022/12/02 09:56:01;;;;;;;14.60;7.03;;;15.00;1.00;;;;;;4826278;29;20046;-40
2022/12/02 09:58:28;;;;;;;14.40;8.25;;;15.10;1.00;;;;;;4826145;29;20039;-40
2022/12/02 10:00:55;;;;;;;20.67;8.18;;;15.00;1.00;;;;;;4824879;29;20051;-40
2022/12/02 10:03:27;;;;;;;13.80;7.30;;;15.00;1.00;;;;;;4824622;29;20046;-40
2022/12/02 10:05:55;;;;;;;14.48;7.32;;;15.10;1.00;;;;;;4826176;29;20043;-40
2022/12/02 10:08:26;;;;;;;18.25;7.72;;;15.10;1.00;;;;;;4826048;29;20107;-41
2022/12/02 10:10:57;;;;;;;13.00;7.25;;;15.10;1.00;;;;;;4826125;29;20099;-41
2022/12/02 10:13:25;;;;;;;12.80;7.15;;;15.10;1.00;;;;;;4825808;29;20046;-40
2022/12/02 10:15:53;;;;;;;14.85;6.97;;;15.10;1.00;;;;;;4825959;29;20050;-40
2022/12/02 10:18:23;;;;;;;15.50;7.38;;;15.10;1.00;;;;;;4825761;29;20046;-41
2022/12/02 10:20:50;;;;;;;14.02;6.80;;;15.10;1.00;;;;;;4825638;29;20132;-40
2022/12/02 10:23:41;;;;;;;13.80;6.88;;;15.10;1.00;;;;;;4825625;29;20146;-40
2022/12/02 10:26:10;;;;;;;12.68;6.90;;;15.10;1.00;;;;;;4822711;29;20062;-40
2022/12/02 10:28:40;;;;;;;18.73;7.35;;;15.10;1.00;;;;;;4825762;29;20054;-40
2022/12/02 10:31:18;;;;;;;12.65;6.75;;;15.10;1.00;;;;;;4825449;29;20111;-40
2022/12/02 10:33:55;;;;;;;14.43;7.35;;;15.10;1.00;;;;;;4825414;29;20055;-40
2022/12/02 10:36:37;;;;;;;14.50;7.25;;;15.10;1.00;;;;;;4825482;29;20062;-40
2022/12/02 10:39:29;;;;;;;11.98;6.03;;;15.10;1.00;;;;;;4824120;29;20085;-40
2022/12/02 10:42:03;;;;;;;14.45;6.45;;;15.10;1.00;;;;;;4825304;29;20056;-40
2022/12/02 10:44:35;;;;;;;13.35;7.80;;;15.10;1.00;;;;;;4825323;29;20058;-40
2022/12/02 10:47:11;;;;;;;;;;;15.00;1.00;;;;;;4825667;29;20411;-40
2022/12/02 10:49:44;;;;;;;11.93;5.25;;;15.00;1.00;;;;;;4825562;29;19925;-40
2022/12/02 10:52:11;;;;;;;13.02;6.78;;;15.00;1.00;;;;;;4824198;29;20503;-40
2022/12/02 10:54:42;;;;;;;13.52;7.03;;;15.00;1.00;;;;;;4825243;29;20042;-41
2022/12/02 10:57:23;;;;;;;15.77;7.18;;;15.00;1.00;;;;;;4825136;29;20054;-40
2022/12/02 10:59:50;;;;;;;13.35;7.07;;;15.00;1.00;;;;;;4824612;29;20088;-41
2022/12/02 11:02:20;;;;;;;15.10;6.90;;;15.00;1.00;;;;;;4824963;29;20057;-40
2022/12/02 11:04:48;;;;;;;13.30;7.25;;;15.00;1.00;;;;;;4823978;29;20042;-40
2022/12/02 11:07:16;;;;;;;14.38;7.35;;;15.00;1.00;;;;;;4825137;29;20057;-40
2022/12/02 11:09:51;;;;;;;17.77;7.32;;;15.00;1.00;;;;;;4823890;29;20073;-40
2022/12/02 11:12:36;;;;;;;13.05;6.55;;;15.00;1.00;;;;;;4824885;29;20520;-40
2022/12/02 11:15:32;;;;;;;13.02;5.97;;;15.00;1.00;;;;;;4823914;29;20046;-40
2022/12/02 11:17:59;;;;;;;14.32;6.85;;;15.00;1.00;;;;;;4824695;29;20432;-40
2022/12/02 11:20:35;;;;;;;14.15;7.10;;;15.00;1.00;;;;;;4824719;29;20056;-40
2022/12/02 11:23:14;;;;;;;12.88;6.90;;;15.00;1.00;;;;;;4824625;29;20085;-40
2022/12/02 11:25:47;;;;;;;13.90;7.32;;;15.00;1.00;;;;;;4824796;29;20133;-40
2022/12/02 11:28:17;;;;;;;11.77;6.45;;;15.00;1.00;;;;;;4824807;29;20554;-40
2022/12/02 11:31:07;;;;;;;12.57;6.65;;;15.00;1.00;;;;;;4824607;29;20073;-40
2022/12/02 11:34:00;;;;;;;13.43;6.47;;;15.00;1.00;;;;;;4824357;29;20046;-40
2022/12/02 11:36:33;;;;;;;11.45;5.80;;;15.00;1.00;;;;;;4823298;29;20518;-40
2022/12/02 11:39:06;;;;;;;12.27;6.70;;;15.00;1.00;;;;;;4824460;29;20460;-40
2022/12/02 11:41:47;;;;;;;11.38;6.18;;;15.00;1.00;;;;;;4824568;29;20057;-40
2022/12/02 11:44:21;;;;;;;14.32;6.93;;;15.00;1.00;;;;;;4824345;29;20141;-40
2022/12/02 11:46:58;;;;;;;11.40;6.38;;;15.00;1.00;;;;;;4824950;29;20119;-40
2022/12/02 11:49:39;;;;;;;15.13;7.45;;;15.00;1.00;;;;;;4824482;29;20042;-40
2022/12/02 11:52:10;;;;;;;17.00;7.97;;;14.90;1.00;;;;;;4824385;29;20488;-40
2022/12/02 11:54:44;;;;;;;17.08;7.65;;;14.90;1.00;;;;;;4824235;29;20042;-41
2022/12/02 11:57:27;;;;;;;18.30;8.13;;;14.90;1.00;;;;;;4824347;29;20466;-40
2022/12/02 11:59:54;;;;;;;12.55;6.60;;;14.90;1.00;;;;;;4824386;29;20065;-40
2022/12/02 12:02:23;;;;;;;18.65;8.27;;;14.90;1.00;;;;;;4824050;29;20419;-40
2022/12/02 12:05:05;;;;;;;14.88;7.10;;;14.90;1.00;;;;;;4824224;29;20049;-40
2022/12/02 12:07:49;;;;;;;13.38;7.18;;;14.90;1.00;;;;;;4824728;29;20133;-40
2022/12/02 12:10:29;;;;;;;16.00;8.18;;;14.90;1.00;;;;;;4823638;29;20058;-40
2022/12/02 12:13:22;;;;;;;16.25;7.40;;;14.90;1.00;;;;;;4823408;29;20046;-40
2022/12/02 12:15:51;;;;;;;16.10;7.97;;;14.90;1.00;;;;;;4824180;29;20076;-40
2022/12/02 12:18:38;;;;;;;15.35;7.95;;;14.90;1.00;;;;;;4823241;29;20058;-40
2022/12/02 12:21:07;;;;;;;14.00;7.10;;;14.90;1.00;;;;;;4822717;29;20133;-40
2022/12/02 12:23:37;;;;;;;13.80;7.03;;;14.90;1.00;;;;;;4823670;29;20046;-41
2022/12/02 12:26:06;;;;;;;14.32;8.00;;;14.90;1.00;;;;;;4822630;29;20049;-40
2022/12/02 12:28:37;;;;;;;18.02;8.20;;;14.90;1.00;;;;;;4823891;29;20058;-40
2022/12/02 12:31:05;;;;;;;14.63;7.50;;;14.90;1.00;;;;;;4823607;29;20058;-40
2022/12/02 12:33:32;;;;;;;16.17;6.65;;;14.90;1.00;;;;;;4823699;29;20046;-41
2022/12/02 12:35:59;;;;;;;14.02;7.40;;;14.90;1.00;;;;;;4822651;29;20415;-40
2022/12/02 12:38:28;;;;;;;15.02;6.88;;;14.90;1.00;;;;;;4823588;29;20050;-40
2022/12/02 12:40:57;;;;;;;14.23;7.07;;;14.90;1.00;;;;;;4823734;29;20043;-40
2022/12/02 12:43:24;;;;;;;11.27;6.43;;;14.80;1.00;;;;;;4823363;29;20154;-40
2022/12/02 12:45:51;;;;;;;13.23;6.78;;;14.80;1.00;;;;;;4823668;29;20066;-40
2022/12/02 12:48:18;;;;;;;13.57;7.13;;;14.80;1.00;;;;;;4823615;29;20050;-40
2022/12/02 12:50:45;;;;;;;14.35;7.40;;;14.80;1.00;;;;;;4823632;29;20057;-40
2022/12/02 12:53:12;;;;;;;12.18;7.40;;;14.80;1.00;;;;;;4823304;29;20049;-40
2022/12/02 12:55:39;;;;;;;13.20;6.72;;;14.80;1.00;;;;;;4822344;29;20058;-40
2022/12/02 12:58:06;;;;;;;15.65;6.65;;;14.80;1.00;;;;;;4806852;29;20126;-40
2022/12/02 13:00:33;;;;;;;13.75;6.70;;;14.80;1.00;;;;;;4823460;29;20141;-41
2022/12/02 13:02:59;;;;;;;11.10;6.13;;;14.80;1.00;;;;;;4823058;29;20047;-40
2022/12/02 13:05:26;;;;;;;10.93;6.57;;;14.80;1.00;;;;;;4823478;29;20542;-40